Time;durP1;ratioP1;P1;durP2;ratioP2;P2;SDS_P1;SDS_P2;PMS_P1;PMS_P2;Temp;Humidity;BMP_temperature;BMP_pressure;BME280_temperature;BME280_humidity;BME280_pressure;Samples;Min_cycle;Max_cycle;Signal;HPM_P1;HPM_P2
2022/10/14 00:00:32;;;;;;;14.20;11.67;;;16.40;99.90;;;;;;5036845;28;20552;-78
2022/10/14 00:02:58;;;;;;;16.07;11.77;;;16.40;99.90;;;;;;5043048;28;20442;-79
2022/10/14 00:05:24;;;;;;;13.53;11.17;;;16.50;99.90;;;;;;5036927;28;20445;-78
2022/10/14 00:07:49;;;;;;;14.67;10.90;;;16.50;99.90;;;;;;5040386;28;20549;-75
2022/10/14 00:10:15;;;;;;;17.07;11.13;;;16.50;99.90;;;;;;5035917;28;20208;-76
2022/10/14 00:12:41;;;;;;;16.80;11.77;;;16.40;99.90;;;;;;5034127;28;20230;-76
2022/10/14 00:15:07;;;;;;;16.43;11.20;;;16.40;99.90;;;;;;5034119;28;20184;-76
2022/10/14 00:17:33;;;;;;;16.10;12.30;;;16.40;99.90;;;;;;5037265;28;20187;-76
2022/10/14 00:19:59;;;;;;;16.07;11.97;;;16.40;99.90;;;;;;5034281;28;20798;-74
2022/10/14 00:22:25;;;;;;;15.03;12.10;;;16.50;99.90;;;;;;5031140;28;20686;-76
2022/10/14 00:24:50;;;;;;;17.10;11.93;;;16.40;99.90;;;;;;5034523;28;20461;-77
2022/10/14 00:27:16;;;;;;;17.30;11.57;;;16.40;99.90;;;;;;5022365;28;20216;-78
2022/10/14 00:29:42;;;;;;;16.00;12.23;;;16.40;99.90;;;;;;5032457;28;20819;-76
2022/10/14 00:32:07;;;;;;;13.93;12.10;;;16.40;99.90;;;;;;5019391;28;20627;-76
2022/10/14 00:34:33;;;;;;;18.80;12.53;;;16.30;99.90;;;;;;5032002;28;20185;-75
2022/10/14 00:36:58;;;;;;;14.27;11.50;;;16.30;99.90;;;;;;5021987;28;20299;-77
2022/10/14 00:39:24;;;;;;;14.90;13.00;;;16.30;99.90;;;;;;5018649;28;20225;-78
2022/10/14 00:41:50;;;;;;;18.40;12.43;;;16.30;99.90;;;;;;5036654;28;20199;-76
2022/10/14 00:44:18;;;;;;;19.93;14.20;;;16.30;99.90;;;;;;5038655;28;20185;-77
2022/10/14 00:46:46;;;;;;;19.00;12.97;;;16.20;99.90;;;;;;5038190;28;20212;-77
2022/10/14 00:49:30;;;;;;;14.33;12.70;;;16.20;99.90;;;;;;5036365;28;20552;-74
2022/10/14 00:52:03;;;;;;;15.37;11.23;;;16.20;99.90;;;;;;5033745;28;20419;-75
2022/10/14 00:54:33;;;;;;;14.50;10.77;;;16.20;99.90;;;;;;5037091;28;20450;-77
2022/10/14 00:57:00;;;;;;;14.13;11.27;;;16.20;99.90;;;;;;5035619;28;20918;-77
2022/10/14 00:59:26;;;;;;;16.60;10.80;;;16.10;99.90;;;;;;5023113;28;21236;-77
2022/10/14 01:01:51;;;;;;;15.57;10.87;;;16.00;99.90;;;;;;5038984;28;20442;-75
2022/10/14 01:04:17;;;;;;;16.77;10.97;;;16.10;99.90;;;;;;5036395;28;20606;-77
2022/10/14 01:06:55;;;;;;;14.93;10.90;;;16.10;99.90;;;;;;5035017;28;20218;-74
2022/10/14 01:09:39;;;;;;;14.47;9.73;;;16.10;99.90;;;;;;5033208;28;20198;-77
2022/10/14 01:12:14;;;;;;;15.37;10.57;;;16.00;99.90;;;;;;5034207;28;20489;-78
2022/10/14 01:14:40;;;;;;;19.53;10.57;;;16.00;99.90;;;;;;5036083;28;20415;-74
2022/10/14 01:17:14;;;;;;;20.27;12.20;;;15.90;99.90;;;;;;5032309;28;20439;-75
2022/10/14 01:20:12;;;;;;;10.37;9.10;;;15.90;99.90;;;;;;5031789;28;20214;-73
2022/10/14 01:22:46;;;;;;;15.03;10.50;;;15.90;99.90;;;;;;5031205;28;20430;-75
2022/10/14 01:25:30;;;;;;;13.23;9.97;;;15.90;99.90;;;;;;5034964;28;20676;-74
2022/10/14 01:28:08;;;;;;;17.10;9.67;;;15.90;99.90;;;;;;5031482;28;20438;-75
2022/10/14 01:30:44;;;;;;;11.23;9.67;;;15.80;99.90;;;;;;5024091;28;20466;-75
2022/10/14 01:33:19;;;;;;;13.13;10.20;;;15.80;99.90;;;;;;5016973;28;20428;-75
2022/10/14 01:36:16;;;;;;;16.03;9.40;;;15.80;99.90;;;;;;5039988;28;20464;-77
2022/10/14 01:39:12;;;;;;;16.30;11.73;;;15.90;99.90;;;;;;5032975;28;20438;-76
2022/10/14 01:41:52;;;;;;;12.23;10.13;;;15.90;99.90;;;;;;5037493;28;20439;-77
2022/10/14 01:44:21;;;;;;;11.90;10.07;;;15.90;99.90;;;;;;5033256;28;20434;-76
2022/10/14 01:46:52;;;;;;;17.60;10.07;;;15.80;99.90;;;;;;5034390;28;20558;-76
2022/10/14 01:49:31;;;;;;;14.40;9.10;;;15.90;99.90;;;;;;5016359;28;20430;-76
2022/10/14 01:52:04;;;;;;;16.03;10.13;;;15.90;99.90;;;;;;5035871;28;20458;-76
2022/10/14 01:54:37;;;;;;;16.07;9.50;;;16.00;99.90;;;;;;5023697;28;20450;-73
2022/10/14 01:57:07;;;;;;;10.83;9.53;;;15.80;99.90;;;;;;5035525;28;21123;-75
2022/10/14 01:59:35;;;;;;;12.40;10.10;;;15.90;99.90;;;;;;5021155;28;20457;-76
2022/10/14 02:02:01;;;;;;;22.97;11.10;;;15.90;99.90;;;;;;5035526;28;20450;-75
2022/10/14 02:04:26;;;;;;;17.57;10.37;;;15.90;99.90;;;;;;5031634;28;20518;-74
2022/10/14 02:07:14;;;;;;;12.60;9.10;;;15.90;99.90;;;;;;5028979;28;20303;-74
2022/10/14 02:10:10;;;;;;;14.27;10.27;;;15.90;99.90;;;;;;5034135;28;20199;-77
2022/10/14 02:12:51;;;;;;;13.87;9.50;;;15.90;99.90;;;;;;5037242;28;20458;-76
2022/10/14 02:15:35;;;;;;;11.27;8.50;;;15.90;99.90;;;;;;5035932;28;20506;-75
2022/10/14 02:18:29;;;;;;;17.23;9.10;;;15.90;99.90;;;;;;5032115;28;20431;-74
2022/10/14 02:21:22;;;;;;;11.07;9.07;;;15.90;99.90;;;;;;5013768;28;20474;-74
2022/10/14 02:23:59;;;;;;;11.60;8.87;;;15.90;99.90;;;;;;5035475;28;20473;-74
2022/10/14 02:26:25;;;;;;;14.83;9.60;;;15.90;99.90;;;;;;5036168;28;20449;-73
2022/10/14 02:28:53;;;;;;;11.60;9.27;;;15.90;99.90;;;;;;5038495;28;20443;-73
2022/10/14 02:31:21;;;;;;;14.93;9.77;;;15.90;99.90;;;;;;5034707;28;20524;-75
2022/10/14 02:33:52;;;;;;;12.00;9.00;;;15.90;99.90;;;;;;5033412;28;21005;-77
2022/10/14 02:36:22;;;;;;;11.43;8.73;;;15.90;99.90;;;;;;5033804;28;20433;-75
2022/10/14 02:38:49;;;;;;;13.53;8.93;;;15.90;99.90;;;;;;5029420;28;20536;-77
2022/10/14 02:41:18;;;;;;;12.40;9.17;;;15.90;99.90;;;;;;5038290;28;20872;-76
2022/10/14 02:43:45;;;;;;;14.00;9.30;;;15.90;99.90;;;;;;5034446;28;20445;-76
2022/10/14 02:46:10;;;;;;;17.07;8.17;;;15.90;99.90;;;;;;5029918;28;21045;-76
2022/10/14 02:48:36;;;;;;;10.77;8.77;;;15.90;99.90;;;;;;5033331;28;20437;-74
2022/10/14 02:51:02;;;;;;;17.10;8.70;;;15.90;99.90;;;;;;5032223;28;20746;-75
2022/10/14 02:53:29;;;;;;;23.80;8.80;;;15.90;99.90;;;;;;5036024;28;20459;-76
2022/10/14 02:55:55;;;;;;;16.00;8.90;;;15.90;99.90;;;;;;5031206;28;20423;-77
2022/10/14 02:58:20;;;;;;;12.43;9.07;;;15.90;99.90;;;;;;5037229;28;20457;-77
2022/10/14 03:00:48;;;;;;;9.57;7.90;;;15.90;99.90;;;;;;5033735;28;20555;-76
2022/10/14 03:03:14;;;;;;;10.00;8.03;;;15.90;99.90;;;;;;5033750;28;20196;-77
2022/10/14 03:05:39;;;;;;;11.77;8.70;;;15.90;99.90;;;;;;5035484;28;20466;-78
2022/10/14 03:08:05;;;;;;;12.80;8.03;;;15.90;99.90;;;;;;5035888;28;20259;-75
2022/10/14 03:10:30;;;;;;;12.30;9.00;;;15.90;99.90;;;;;;5019420;28;20204;-76
2022/10/14 03:12:56;;;;;;;10.80;7.93;;;15.90;99.90;;;;;;5034700;28;20185;-74
2022/10/14 03:15:22;;;;;;;9.73;8.70;;;16.00;99.90;;;;;;5031627;28;20263;-74
2022/10/14 03:17:47;;;;;;;9.53;8.00;;;16.00;99.90;;;;;;5030849;28;20175;-76
2022/10/14 03:20:13;;;;;;;11.20;8.00;;;16.00;99.90;;;;;;5029648;28;20332;-77
2022/10/14 03:22:38;;;;;;;15.27;9.07;;;16.00;99.90;;;;;;5030349;28;20192;-77
2022/10/14 03:25:04;;;;;;;11.30;7.73;;;16.00;99.90;;;;;;5034972;28;20212;-76
2022/10/14 03:27:31;;;;;;;12.23;7.50;;;16.00;99.90;;;;;;5035377;28;20329;-75
2022/10/14 03:29:56;;;;;;;12.20;7.73;;;16.00;99.90;;;;;;5034113;28;20446;-76
2022/10/14 03:32:22;;;;;;;13.83;8.57;;;16.00;99.90;;;;;;5031540;28;21438;-75
2022/10/14 03:34:47;;;;;;;11.00;8.10;;;16.00;99.90;;;;;;5012735;28;20264;-78
2022/10/14 03:37:13;;;;;;;9.10;7.47;;;16.00;99.90;;;;;;5026655;28;20629;-77
2022/10/14 03:39:38;;;;;;;10.63;8.47;;;16.00;99.90;;;;;;5033053;28;20299;-77
2022/10/14 03:42:05;;;;;;;14.00;9.23;;;16.00;99.90;;;;;;5032267;28;20184;-77
2022/10/14 03:44:30;;;;;;;9.07;7.07;;;16.00;99.90;;;;;;5033937;28;20188;-74
2022/10/14 03:46:56;;;;;;;13.40;7.20;;;16.00;99.90;;;;;;5031864;28;20465;-76
2022/10/14 03:49:21;;;;;;;8.50;6.97;;;16.00;99.90;;;;;;5035218;28;20227;-77
2022/10/14 03:51:47;;;;;;;16.00;7.80;;;16.00;99.90;;;;;;5038740;28;20184;-78
2022/10/14 03:54:13;;;;;;;8.03;7.20;;;16.00;99.90;;;;;;5042231;28;20188;-78
2022/10/14 03:56:38;;;;;;;13.70;7.57;;;16.00;99.90;;;;;;5038807;28;20663;-78
2022/10/14 03:59:04;;;;;;;10.33;7.50;;;16.00;99.90;;;;;;5024894;28;20637;-77
2022/10/14 04:01:29;;;;;;;9.03;7.80;;;16.00;99.90;;;;;;5041027;28;20598;-78
2022/10/14 04:03:55;;;;;;;10.73;7.70;;;16.00;99.90;;;;;;5036162;28;20716;-77
2022/10/14 04:06:20;;;;;;;14.63;8.67;;;15.90;99.90;;;;;;5035607;28;20204;-77
2022/10/14 04:08:46;;;;;;;18.27;7.97;;;16.00;99.90;;;;;;5036688;28;20209;-78
2022/10/14 04:11:12;;;;;;;20.33;8.53;;;15.90;99.90;;;;;;5036092;28;20303;-75
2022/10/14 04:13:37;;;;;;;10.73;7.73;;;15.90;99.90;;;;;;5029912;28;20183;-74
2022/10/14 04:16:07;;;;;;;10.27;7.73;;;15.90;99.90;;;;;;5039146;28;20196;-74
2022/10/14 04:18:33;;;;;;;10.30;7.07;;;15.90;99.90;;;;;;5030481;28;20189;-74
2022/10/14 04:21:09;;;;;;;12.20;7.20;;;15.80;99.90;;;;;;5036648;28;20990;-75
2022/10/14 04:23:35;;;;;;;8.13;7.33;;;15.80;99.90;;;;;;5036308;28;20418;-75
2022/10/14 04:26:05;;;;;;;10.30;6.83;;;15.80;99.90;;;;;;5015412;28;20458;-75
2022/10/14 04:28:32;;;;;;;11.07;7.77;;;15.80;99.90;;;;;;5033873;28;20460;-77
2022/10/14 04:31:00;;;;;;;8.50;7.17;;;15.70;99.90;;;;;;5038361;28;20811;-77
2022/10/14 04:33:26;;;;;;;8.50;6.93;;;15.70;99.90;;;;;;5041646;28;20846;-79
2022/10/14 04:36:00;;;;;;;8.80;6.70;;;15.70;99.90;;;;;;5024795;28;21143;-76
2022/10/14 04:38:26;;;;;;;10.90;6.90;;;15.70;99.90;;;;;;5041361;28;20430;-78
2022/10/14 04:40:51;;;;;;;8.13;7.33;;;15.70;99.90;;;;;;5039973;28;20439;-77
2022/10/14 04:43:17;;;;;;;12.50;7.40;;;15.70;99.90;;;;;;5033629;28;20557;-76
2022/10/14 04:45:43;;;;;;;9.67;7.60;;;15.70;99.90;;;;;;5034299;28;20196;-74
2022/10/14 04:48:08;;;;;;;10.70;7.30;;;15.70;99.90;;;;;;5016206;28;20267;-78
2022/10/14 04:50:34;;;;;;;10.83;6.83;;;15.70;99.90;;;;;;5037355;28;20192;-76
2022/10/14 04:53:00;;;;;;;11.30;7.70;;;15.70;99.90;;;;;;5033716;28;20204;-74
2022/10/14 04:55:25;;;;;;;9.30;7.50;;;15.70;99.90;;;;;;5022225;28;20203;-76
2022/10/14 04:57:51;;;;;;;11.70;6.90;;;15.70;99.90;;;;;;5037160;28;20183;-76
2022/10/14 05:00:17;;;;;;;14.47;6.30;;;15.70;99.90;;;;;;5038438;28;20230;-76
2022/10/14 05:02:43;;;;;;;10.43;8.20;;;15.70;99.90;;;;;;5038372;28;20209;-78
2022/10/14 05:05:08;;;;;;;6.87;6.17;;;15.70;99.90;;;;;;5019241;28;20670;-78
2022/10/14 05:07:34;;;;;;;8.53;7.13;;;15.60;99.90;;;;;;5024072;28;20207;-77
2022/10/14 05:10:00;;;;;;;11.10;7.30;;;15.60;99.90;;;;;;5037983;28;20567;-76
2022/10/14 05:12:27;;;;;;;7.93;6.80;;;15.60;99.90;;;;;;5035892;28;20434;-75
2022/10/14 05:14:53;;;;;;;9.13;6.80;;;15.60;99.90;;;;;;5037106;28;20435;-75
2022/10/14 05:17:19;;;;;;;8.87;6.43;;;15.60;99.90;;;;;;5041906;28;20466;-78
2022/10/14 05:19:45;;;;;;;10.27;7.30;;;15.60;99.90;;;;;;5042610;28;20482;-79
2022/10/14 05:22:11;;;;;;;8.80;6.93;;;15.60;99.90;;;;;;5028039;28;20450;-75
2022/10/14 05:24:37;;;;;;;12.87;7.07;;;15.60;99.90;;;;;;5034631;28;20179;-76
2022/10/14 05:27:03;;;;;;;9.53;6.53;;;15.60;99.90;;;;;;5034416;28;20478;-76
2022/10/14 05:29:28;;;;;;;8.20;6.40;;;15.70;99.90;;;;;;5032810;28;20217;-77
2022/10/14 05:31:54;;;;;;;9.60;6.83;;;15.70;99.90;;;;;;5031856;28;20279;-76
2022/10/14 05:34:19;;;;;;;8.80;6.47;;;15.70;99.90;;;;;;5015124;28;20199;-77
2022/10/14 05:36:45;;;;;;;7.20;5.63;;;15.70;99.90;;;;;;5035513;28;20850;-76
2022/10/14 05:39:12;;;;;;;11.70;6.77;;;15.70;99.90;;;;;;5018920;28;20242;-75
2022/10/14 05:41:38;;;;;;;11.87;6.97;;;15.70;99.90;;;;;;5037018;28;20188;-77
2022/10/14 05:44:04;;;;;;;22.13;6.83;;;15.70;99.90;;;;;;5035601;28;20504;-76
2022/10/14 05:46:30;;;;;;;11.43;5.70;;;15.70;99.90;;;;;;5037665;28;20871;-74
2022/10/14 05:48:59;;;;;;;7.70;6.20;;;15.70;99.90;;;;;;5014838;28;20446;-77
2022/10/14 05:51:25;;;;;;;9.83;6.77;;;15.80;99.90;;;;;;5032464;28;20200;-75
2022/10/14 05:53:51;;;;;;;10.67;5.90;;;15.80;99.90;;;;;;5029444;28;20456;-76
2022/10/14 05:56:16;;;;;;;10.70;6.30;;;15.80;99.90;;;;;;5025416;28;20458;-78
2022/10/14 05:58:42;;;;;;;11.60;6.00;;;15.80;99.90;;;;;;5028117;28;20430;-77
2022/10/14 06:01:09;;;;;;;8.10;5.70;;;15.80;99.90;;;;;;5042149;28;20211;-79
2022/10/14 06:03:35;;;;;;;7.47;6.13;;;15.80;99.90;;;;;;5022170;28;20187;-77
2022/10/14 06:06:01;;;;;;;12.60;6.60;;;15.90;99.90;;;;;;5039481;28;20517;-77
2022/10/14 06:08:27;;;;;;;9.80;6.50;;;15.90;99.90;;;;;;5045482;28;20191;-79
2022/10/14 06:10:53;;;;;;;10.20;6.00;;;15.90;99.90;;;;;;5021072;28;20219;-78
2022/10/14 06:13:19;;;;;;;8.53;7.00;;;15.90;99.90;;;;;;5034829;28;20435;-77
2022/10/14 06:15:45;;;;;;;8.60;5.40;;;16.00;99.90;;;;;;5031060;28;20778;-75
2022/10/14 06:18:10;;;;;;;9.37;6.60;;;16.00;99.90;;;;;;5032431;28;20484;-75
2022/10/14 06:20:36;;;;;;;7.33;6.40;;;16.00;99.90;;;;;;5033149;28;20199;-75
2022/10/14 06:23:02;;;;;;;8.10;5.70;;;16.00;99.90;;;;;;5018902;28;20241;-74
2022/10/14 06:25:29;;;;;;;11.13;6.80;;;16.10;99.90;;;;;;5032706;28;20225;-76
2022/10/14 06:27:55;;;;;;;12.13;7.00;;;16.10;99.90;;;;;;5033212;28;20445;-75
2022/10/14 06:30:20;;;;;;;8.60;6.37;;;16.20;99.90;;;;;;5036812;28;20462;-77
2022/10/14 06:32:46;;;;;;;7.27;6.10;;;16.20;99.90;;;;;;5030278;28;20461;-74
2022/10/14 06:35:12;;;;;;;9.90;5.80;;;16.20;99.90;;;;;;5034131;28;20259;-74
2022/10/14 06:37:37;;;;;;;7.63;6.00;;;16.30;99.90;;;;;;5016513;28;20180;-76
2022/10/14 06:40:04;;;;;;;9.23;5.43;;;16.30;99.90;;;;;;5032060;28;20215;-72
2022/10/14 06:42:30;;;;;;;8.40;6.13;;;16.30;99.90;;;;;;5033383;28;20188;-76
2022/10/14 06:44:55;;;;;;;11.17;6.70;;;16.40;99.90;;;;;;5032961;28;20880;-75
2022/10/14 06:47:21;;;;;;;7.77;6.33;;;16.40;99.90;;;;;;5016937;28;20767;-74
2022/10/14 06:49:46;;;;;;;8.43;6.30;;;16.50;99.90;;;;;;5020113;28;20199;-76
2022/10/14 06:52:12;;;;;;;7.47;5.70;;;16.50;99.90;;;;;;5039243;28;20190;-74
2022/10/14 06:54:37;;;;;;;7.83;6.40;;;16.60;99.90;;;;;;5035081;28;20183;-75
2022/10/14 06:57:03;;;;;;;7.33;5.77;;;16.60;99.90;;;;;;5038325;28;20984;-75
2022/10/14 06:59:29;;;;;;;6.90;5.83;;;16.70;99.90;;;;;;5022940;28;20223;-76
2022/10/14 07:01:54;;;;;;;7.87;5.87;;;16.70;99.90;;;;;;5039805;28;20194;-73
2022/10/14 07:04:20;;;;;;;8.50;6.17;;;16.70;99.90;;;;;;5036365;28;20242;-75
2022/10/14 07:06:46;;;;;;;12.37;6.37;;;16.70;99.90;;;;;;5032259;28;20212;-74
2022/10/14 07:09:11;;;;;;;10.73;6.70;;;16.70;99.90;;;;;;5036526;28;20181;-76
2022/10/14 07:11:37;;;;;;;9.73;6.30;;;16.80;99.90;;;;;;5021621;28;20723;-73
2022/10/14 07:14:03;;;;;;;8.43;6.23;;;16.80;99.90;;;;;;5034815;28;20745;-73
2022/10/14 07:16:28;;;;;;;8.67;6.13;;;16.90;99.90;;;;;;5035542;28;20203;-74
2022/10/14 07:18:54;;;;;;;7.10;5.67;;;16.90;99.90;;;;;;5029652;28;20184;-74
2022/10/14 07:21:20;;;;;;;10.03;6.30;;;17.00;99.90;;;;;;5035461;28;20195;-74
2022/10/14 07:23:45;;;;;;;12.60;5.57;;;17.00;99.90;;;;;;5033576;28;20183;-74
2022/10/14 07:26:11;;;;;;;6.50;5.80;;;17.00;99.90;;;;;;5029873;28;21615;-75
2022/10/14 07:28:37;;;;;;;7.00;5.43;;;17.00;99.90;;;;;;5034418;28;20238;-76
2022/10/14 07:31:05;;;;;;;10.43;5.60;;;17.10;99.90;;;;;;5033023;28;20462;-75
2022/10/14 07:33:31;;;;;;;7.43;5.37;;;17.10;99.90;;;;;;5036203;28;20180;-75
2022/10/14 07:36:06;;;;;;;7.33;5.57;;;17.20;99.90;;;;;;5036386;28;20509;-75
2022/10/14 07:38:32;;;;;;;7.93;6.10;;;17.20;99.90;;;;;;5033171;28;20488;-76
2022/10/14 07:41:00;;;;;;;8.20;6.00;;;17.20;99.90;;;;;;5031117;28;20466;-75
2022/10/14 07:43:27;;;;;;;9.23;6.70;;;17.30;99.90;;;;;;5029814;28;20204;-74
2022/10/14 07:45:59;;;;;;;7.70;6.13;;;17.30;99.90;;;;;;5015028;28;20476;-74
2022/10/14 07:48:26;;;;;;;7.20;5.80;;;17.30;99.90;;;;;;5028800;28;20434;-75
2022/10/14 07:50:52;;;;;;;10.33;5.43;;;17.40;99.90;;;;;;5032416;28;20459;-75
2022/10/14 07:53:18;;;;;;;9.70;5.63;;;17.40;99.90;;;;;;5033964;28;20469;-75
2022/10/14 07:55:51;;;;;;;7.17;5.60;;;17.40;99.90;;;;;;5032437;28;20184;-74
2022/10/14 07:58:21;;;;;;;8.10;5.50;;;17.50;99.90;;;;;;5030671;28;20533;-74
2022/10/14 08:00:48;;;;;;;7.83;5.70;;;17.50;99.90;;;;;;5036201;28;20547;-74
2022/10/14 08:03:15;;;;;;;9.97;5.37;;;17.50;99.90;;;;;;5038306;28;20426;-75
2022/10/14 08:05:41;;;;;;;12.53;9.80;;;17.50;99.90;;;;;;5036311;28;20441;-77
2022/10/14 08:08:07;;;;;;;6.97;5.80;;;17.60;99.90;;;;;;5039095;28;20929;-74
2022/10/14 08:10:33;;;;;;;7.23;6.07;;;17.60;99.90;;;;;;5037041;28;20193;-75
2022/10/14 08:12:59;;;;;;;7.67;5.57;;;17.70;99.90;;;;;;5035939;28;20449;-74
2022/10/14 08:15:29;;;;;;;10.63;6.07;;;17.70;99.90;;;;;;5019353;28;20434;-75
2022/10/14 08:17:55;;;;;;;7.80;6.40;;;17.70;99.90;;;;;;5022349;28;20977;-75
2022/10/14 08:20:23;;;;;;;9.33;5.53;;;17.80;99.90;;;;;;5022433;28;21020;-76
2022/10/14 08:22:49;;;;;;;9.40;5.80;;;17.80;99.90;;;;;;5039962;28;20857;-76
2022/10/14 08:25:14;;;;;;;8.23;5.80;;;17.80;99.90;;;;;;5038829;28;20427;-78
2022/10/14 08:27:40;;;;;;;19.30;5.47;;;17.90;99.90;;;;;;5041672;28;20749;-77
2022/10/14 08:30:06;;;;;;;8.30;5.70;;;17.90;99.90;;;;;;5023728;28;20204;-75
2022/10/14 08:32:32;;;;;;;6.80;6.17;;;18.00;99.90;;;;;;5035892;28;20195;-77
2022/10/14 08:34:57;;;;;;;10.27;6.80;;;18.00;99.90;;;;;;5042817;28;20439;-77
2022/10/14 08:37:23;;;;;;;8.90;6.00;;;18.00;99.90;;;;;;5036308;28;20192;-75
2022/10/14 08:39:48;;;;;;;8.60;5.10;;;18.00;99.90;;;;;;5022090;28;20262;-78
2022/10/14 08:42:25;;;;;;;16.33;6.50;;;18.10;99.90;;;;;;5034668;28;20192;-73
2022/10/14 08:44:58;;;;;;;7.53;5.37;;;18.10;99.90;;;;;;5043679;28;20258;-75
2022/10/14 08:47:35;;;;;;;11.67;6.37;;;18.20;99.90;;;;;;5033837;28;20465;-74
2022/10/14 08:50:29;;;;;;;6.43;5.80;;;18.30;99.90;;;;;;5032469;28;20430;-75
2022/10/14 08:53:00;;;;;;;11.40;6.90;;;18.30;99.90;;;;;;5036394;28;20973;-74
2022/10/14 08:55:41;;;;;;;7.27;5.30;;;18.30;99.90;;;;;;5034022;28;20489;-75
2022/10/14 08:58:22;;;;;;;10.80;5.77;;;18.40;99.90;;;;;;5036716;28;20419;-75
2022/10/14 09:00:50;;;;;;;13.10;6.23;;;18.40;99.90;;;;;;5036143;28;21173;-73
2022/10/14 09:03:32;;;;;;;11.53;7.10;;;18.40;99.90;;;;;;5039998;28;20414;-75
2022/10/14 09:06:01;;;;;;;8.43;6.50;;;18.50;99.90;;;;;;5033337;28;20875;-74
2022/10/14 09:08:48;;;;;;;7.50;5.80;;;18.50;99.90;;;;;;5034608;28;20422;-75
2022/10/14 09:11:18;;;;;;;8.37;6.13;;;18.40;99.90;;;;;;5033634;28;20478;-75
2022/10/14 09:13:47;;;;;;;9.70;6.23;;;18.40;99.90;;;;;;5035678;28;20565;-75
2022/10/14 09:16:16;;;;;;;10.20;6.30;;;18.50;99.90;;;;;;5018551;28;20439;-74
2022/10/14 09:18:55;;;;;;;10.07;6.40;;;18.50;99.90;;;;;;5034859;28;20427;-76
2022/10/14 09:21:37;;;;;;;7.47;5.27;;;18.50;99.90;;;;;;5034755;28;20458;-74
2022/10/14 09:24:13;;;;;;;6.20;4.87;;;18.40;99.90;;;;;;5037858;28;20556;-74
2022/10/14 09:26:44;;;;;;;8.00;5.37;;;18.40;99.90;;;;;;5039163;28;20476;-75
2022/10/14 09:29:29;;;;;;;10.00;6.03;;;18.40;99.90;;;;;;5037762;28;20434;-75
2022/10/14 09:32:02;;;;;;;6.90;5.33;;;18.60;99.90;;;;;;5034394;28;21137;-75
2022/10/14 09:34:37;;;;;;;6.33;5.17;;;18.70;99.90;;;;;;5037237;28;20538;-76
2022/10/14 09:37:33;;;;;;;8.40;5.37;;;18.70;99.90;;;;;;5014929;28;20451;-75
2022/10/14 09:40:12;;;;;;;8.10;4.60;;;18.80;99.90;;;;;;5029312;28;20504;-74
2022/10/14 09:43:00;;;;;;;7.80;4.70;;;18.90;99.90;;;;;;5022310;28;20970;-76
2022/10/14 09:45:29;;;;;;;8.73;5.60;;;19.00;99.90;;;;;;5019890;28;20435;-74
2022/10/14 09:48:06;;;;;;;7.23;4.93;;;19.00;99.90;;;;;;5039108;28;20529;-75
2022/10/14 09:50:47;;;;;;;8.67;5.10;;;19.10;99.90;;;;;;5024369;28;20473;-74
2022/10/14 09:53:35;;;;;;;6.57;5.70;;;19.10;99.90;;;;;;5035480;28;20453;-76
2022/10/14 09:56:03;;;;;;;8.50;4.93;;;19.10;99.90;;;;;;5031720;28;20490;-73
2022/10/14 09:58:43;;;;;;;6.93;4.60;;;19.20;99.90;;;;;;5033151;28;20429;-74
2022/10/14 10:01:21;;;;;;;12.10;5.50;;;19.10;99.90;;;;;;5032400;28;20459;-75
2022/10/14 10:03:49;;;;;;;6.33;4.30;;;19.20;99.90;;;;;;5034808;28;20442;-74
2022/10/14 10:06:27;;;;;;;6.37;4.50;;;19.20;99.90;;;;;;5020975;28;20455;-77
2022/10/14 10:08:52;;;;;;;6.30;4.50;;;19.20;99.90;;;;;;5035631;28;21223;-75
2022/10/14 10:11:38;;;;;;;9.40;4.73;;;19.10;99.90;;;;;;5033644;28;20459;-76
2022/10/14 10:14:21;;;;;;;8.30;4.50;;;19.00;99.90;;;;;;5031918;28;20671;-76
2022/10/14 10:16:49;;;;;;;5.80;4.30;;;19.00;99.90;;;;;;5032690;28;20466;-73
2022/10/14 10:19:28;;;;;;;7.87;4.40;;;18.90;99.90;;;;;;5033111;28;20439;-75
2022/10/14 10:22:13;;;;;;;5.63;4.53;;;18.70;99.90;;;;;;5032598;28;20437;-75
2022/10/14 10:24:39;;;;;;;7.50;4.30;;;18.60;99.90;;;;;;5038554;28;20437;-73
2022/10/14 10:27:25;;;;;;;7.50;4.63;;;18.50;99.90;;;;;;5032372;28;20478;-75
2022/10/14 10:29:50;;;;;;;4.77;4.27;;;18.40;99.90;;;;;;5038673;28;20239;-75
2022/10/14 10:32:45;;;;;;;7.33;4.97;;;18.20;99.90;;;;;;5042085;28;20442;-76
2022/10/14 10:35:47;;;;;;;6.47;4.20;;;18.30;99.90;;;;;;5033796;28;20217;-76
2022/10/14 10:38:38;;;;;;;6.57;4.23;;;18.20;99.90;;;;;;5034650;28;20441;-76
2022/10/14 10:41:14;;;;;;;5.30;4.40;;;18.10;99.90;;;;;;5017088;28;20541;-75
2022/10/14 10:43:48;;;;;;;5.77;3.70;;;18.00;99.90;;;;;;5032092;28;21446;-76
2022/10/14 10:46:31;;;;;;;5.17;4.07;;;18.10;99.90;;;;;;5022483;28;20459;-76
2022/10/14 10:49:13;;;;;;;5.97;4.00;;;18.10;99.90;;;;;;5037068;28;20473;-74
2022/10/14 10:51:53;;;;;;;11.17;4.90;;;18.30;99.90;;;;;;5036172;28;20425;-74
2022/10/14 10:54:31;;;;;;;5.70;4.30;;;18.10;99.90;;;;;;5034190;28;20435;-76
2022/10/14 10:57:05;;;;;;;6.03;4.47;;;18.20;99.90;;;;;;5036081;28;20438;-78
2022/10/14 10:59:49;;;;;;;8.90;4.60;;;18.20;99.90;;;;;;5037653;28;20497;-76
2022/10/14 11:02:44;;;;;;;5.30;4.33;;;18.30;99.90;;;;;;5037173;28;20403;-76
2022/10/14 11:05:44;;;;;;;7.80;5.03;;;18.40;99.90;;;;;;5037451;28;20466;-74
2022/10/14 11:14:35;;;;;;;5.77;4.13;;;18.70;99.90;;;;;;5034439;28;20425;-75
2022/10/14 11:17:39;;;;;;;10.03;4.70;;;18.90;99.90;;;;;;5033783;28;20526;-76
2022/10/14 11:20:21;;;;;;;6.73;4.53;;;19.00;99.90;;;;;;5031848;28;20970;-74
2022/10/14 11:23:03;;;;;;;4.80;4.00;;;19.10;99.90;;;;;;5032349;28;20441;-77
2022/10/14 11:26:09;;;;;;;14.13;4.60;;;19.30;99.90;;;;;;5027853;28;21393;-76
2022/10/14 11:29:05;;;;;;;4.47;3.87;;;19.40;99.90;;;;;;5015253;28;20512;-75
2022/10/14 11:31:50;;;;;;;4.37;3.80;;;19.50;99.90;;;;;;5032262;28;20434;-74
2022/10/14 11:34:34;;;;;;;6.07;4.10;;;19.70;99.90;;;;;;5004884;28;20438;-76
2022/10/14 11:37:08;;;;;;;6.57;3.60;;;19.90;99.90;;;;;;5018724;28;20430;-74
2022/10/14 11:39:54;;;;;;;6.77;4.30;;;20.10;99.90;;;;;;5037169;28;20433;-78
2022/10/14 11:42:31;;;;;;;6.17;4.73;;;20.20;99.90;;;;;;5024938;28;21236;-74
2022/10/14 11:45:35;;;;;;;4.20;3.67;;;20.20;99.90;;;;;;5024604;28;20821;-77
2022/10/14 11:48:15;;;;;;;6.27;3.33;;;20.20;99.90;;;;;;5038342;28;20468;-73
2022/10/14 11:50:44;;;;;;;5.10;3.40;;;20.20;99.90;;;;;;5032287;28;20450;-76
2022/10/14 11:53:34;;;;;;;5.37;3.50;;;20.30;99.90;;;;;;5040394;28;20449;-74
2022/10/14 11:56:32;;;;;;;6.03;3.33;;;20.30;99.90;;;;;;5038842;28;20410;-75
2022/10/14 11:59:23;;;;;;;5.37;4.20;;;20.40;99.90;;;;;;5026610;28;20417;-75
2022/10/14 12:01:52;;;;;;;9.07;5.70;;;20.40;99.90;;;;;;5035546;28;20463;-75
2022/10/14 12:04:36;;;;;;;4.60;3.83;;;20.40;99.90;;;;;;5034933;28;20462;-73
2022/10/14 12:07:09;;;;;;;5.30;3.97;;;20.20;99.90;;;;;;5036385;28;20461;-75
2022/10/14 12:09:47;;;;;;;7.80;5.13;;;20.10;99.90;;;;;;5026130;28;20829;-74
2022/10/14 12:12:18;;;;;;;4.70;3.77;;;20.20;99.90;;;;;;5034431;28;20443;-75
2022/10/14 12:14:48;;;;;;;5.03;3.93;;;20.20;99.90;;;;;;5037345;28;21216;-73
2022/10/14 12:17:46;;;;;;;4.77;3.87;;;20.20;99.90;;;;;;5037670;28;20446;-74
2022/10/14 12:20:36;;;;;;;6.73;4.27;;;20.10;99.90;;;;;;5027309;28;20466;-75
2022/10/14 12:23:06;;;;;;;3.87;3.10;;;20.10;99.90;;;;;;5037399;28;20465;-75
2022/10/14 12:26:01;;;;;;;3.83;3.23;;;20.00;99.90;;;;;;5018140;28;20460;-74
2022/10/14 12:28:27;;;;;;;7.60;5.50;;;19.90;99.90;;;;;;5007053;28;20481;-75
2022/10/14 12:31:31;;;;;;;5.87;4.40;;;19.90;99.90;;;;;;5026010;28;20457;-76
2022/10/14 12:34:16;;;;;;;4.47;3.63;;;19.80;99.90;;;;;;5040471;28;20437;-76
2022/10/14 12:36:46;;;;;;;5.83;3.60;;;19.80;99.90;;;;;;5041998;28;20986;-76
2022/10/14 12:39:18;;;;;;;4.97;3.40;;;19.80;99.90;;;;;;5018739;28;20439;-75
2022/10/14 12:42:13;;;;;;;5.57;3.13;;;19.80;99.90;;;;;;5041230;28;20533;-72
2022/10/14 12:44:54;;;;;;;4.60;3.30;;;19.60;99.90;;;;;;5012809;28;20518;-71
2022/10/14 12:47:33;;;;;;;6.47;3.80;;;19.50;99.90;;;;;;5034735;28;20534;-71
2022/10/14 12:50:13;;;;;;;5.03;3.47;;;19.60;99.90;;;;;;5033613;28;20845;-71
2022/10/14 12:52:43;;;;;;;4.13;3.43;;;19.70;99.90;;;;;;5027241;28;20447;-71
2022/10/14 12:55:22;;;;;;;4.93;3.60;;;19.70;99.90;;;;;;5031622;28;20453;-72
2022/10/14 12:57:59;;;;;;;7.83;3.73;;;19.60;99.90;;;;;;5015802;28;20472;-71
2022/10/14 13:00:25;;;;;;;5.37;3.13;;;19.70;99.90;;;;;;5035092;28;20544;-72
2022/10/14 13:03:02;;;;;;;4.53;3.07;;;19.70;99.90;;;;;;5038402;28;20536;-71
2022/10/14 13:05:37;;;;;;;4.60;3.50;;;19.70;99.90;;;;;;5033997;28;20217;-71
2022/10/14 13:08:26;;;;;;;4.77;3.30;;;19.70;99.90;;;;;;5031923;28;20456;-71
2022/10/14 13:10:58;;;;;;;5.60;3.20;;;19.70;99.90;;;;;;5032511;28;21121;-71